Time;durP1;ratioP1;P1;durP2;ratioP2;P2;SDS_P1;SDS_P2;PMS_P1;PMS_P2;Temp;Humidity;BMP_temperature;BMP_pressure;BME280_temperature;BME280_humidity;BME280_pressure;Samples;Min_cycle;Max_cycle;Signal;HPM_P1;HPM_P2
2024/04/18 00:01:18;;;;;;;22.15;10.95;;;;;;;2.09;100.00;101356.84;5348101;26;19997;-69
2024/04/18 00:03:44;;;;;;;22.83;11.60;;;;;;;2.11;100.00;101358.63;5347800;26;19993;-69
2024/04/18 00:06:09;;;;;;;23.55;12.25;;;;;;;2.15;100.00;101360.56;5347580;26;20005;-69
2024/04/18 00:08:35;;;;;;;23.23;12.20;;;;;;;2.08;100.00;101362.91;5347613;26;20007;-70
2024/04/18 00:11:00;;;;;;;22.92;12.20;;;;;;;2.14;100.00;101364.91;5347809;26;20082;-69
2024/04/18 00:13:25;;;;;;;22.90;12.30;;;;;;;2.14;100.00;101358.78;5347694;26;20317;-67
2024/04/18 00:15:51;;;;;;;23.60;12.95;;;;;;;2.12;100.00;101350.88;5347634;26;20004;-67
2024/04/18 00:18:16;;;;;;;23.65;12.60;;;;;;;2.13;100.00;101360.50;5347386;26;19997;-66
2024/04/18 00:20:43;;;;;;;22.88;12.57;;;;;;;2.20;100.00;101366.88;5347204;26;20001;-67
2024/04/18 00:23:08;;;;;;;23.55;12.43;;;;;;;2.18;100.00;101360.72;5347722;26;19993;-67
2024/04/18 00:25:34;;;;;;;23.73;12.88;;;;;;;2.19;100.00;101368.63;5347292;26;20011;-67
2024/04/18 00:27:59;;;;;;;23.75;12.77;;;;;;;2.18;100.00;101365.94;5347442;26;20066;-68
2024/04/18 00:30:25;;;;;;;23.48;12.63;;;;;;;2.15;100.00;101371.91;5347771;26;20000;-69
2024/04/18 00:32:50;;;;;;;22.33;12.60;;;;;;;2.15;100.00;101368.41;5345639;26;20005;-67
2024/04/18 00:35:16;;;;;;;23.38;12.80;;;;;;;2.08;100.00;101375.94;5389675;26;20074;-71
2024/04/18 00:37:41;;;;;;;23.75;12.75;;;;;;;2.02;100.00;101378.25;5347279;26;20004;-68
2024/04/18 00:40:06;;;;;;;22.95;12.35;;;;;;;2.04;100.00;101379.22;5347286;26;20012;-68
2024/04/18 00:42:32;;;;;;;22.13;12.20;;;;;;;2.04;100.00;101386.13;5347473;26;19993;-66
2024/04/18 00:44:57;;;;;;;22.40;12.40;;;;;;;2.07;100.00;101386.31;5347282;26;19997;-67
2024/04/18 00:47:22;;;;;;;22.45;12.73;;;;;;;2.09;100.00;101384.66;5347363;26;20439;-67
2024/04/18 00:49:48;;;;;;;23.10;12.93;;;;;;;2.07;100.00;101389.81;5345648;26;19997;-69
2024/04/18 00:52:20;;;;;;;23.67;13.32;;;;;;;2.07;100.00;101392.41;5347210;26;20062;-67
2024/04/18 00:54:47;;;;;;;22.67;12.87;;;;;;;2.05;100.00;101394.06;5347165;26;19997;-68
2024/04/18 00:57:13;;;;;;;22.98;12.70;;;;;;;2.08;100.00;101391.59;5347280;26;20029;-67
2024/04/18 00:59:38;;;;;;;24.23;13.57;;;;;;;2.15;100.00;101394.50;5346931;26;19999;-69
2024/04/18 01:02:04;;;;;;;24.30;13.57;;;;;;;2.14;100.00;101388.38;5347048;26;19997;-66
2024/04/18 01:04:30;;;;;;;23.40;13.38;;;;;;;2.15;100.00;101397.97;5347227;26;19993;-67
2024/04/18 01:06:56;;;;;;;23.25;13.35;;;;;;;2.22;100.00;101407.00;5347076;26;20012;-66
2024/04/18 01:09:21;;;;;;;23.95;14.02;;;;;;;2.24;100.00;101400.13;5346732;26;20360;-67
2024/04/18 01:11:46;;;;;;;24.25;13.98;;;;;;;2.32;100.00;101400.50;5345381;26;20001;-66
2024/04/18 01:14:12;;;;;;;24.67;14.38;;;;;;;2.38;100.00;101403.41;5346621;26;20005;-68
2024/04/18 01:16:37;;;;;;;23.55;13.75;;;;;;;2.42;100.00;101403.59;5346558;26;20012;-67
2024/04/18 01:19:08;;;;;;;24.20;14.02;;;;;;;2.51;100.00;101408.34;5346917;26;20007;-68
2024/04/18 01:21:33;;;;;;;24.30;14.45;;;;;;;2.56;100.00;101417.31;5346852;26;20087;-66
2024/04/18 01:23:58;;;;;;;23.88;13.63;;;;;;;2.65;100.00;101422.06;5389076;26;20420;-68
2024/04/18 01:26:24;;;;;;;23.42;13.75;;;;;;;2.65;100.00;101422.06;5346530;26;20012;-66
2024/04/18 01:28:49;;;;;;;23.70;13.55;;;;;;;2.69;100.00;101421.34;5346400;26;19997;-67
2024/04/18 01:31:14;;;;;;;23.90;13.77;;;;;;;2.73;100.00;101420.66;5346746;26;20009;-66
2024/04/18 01:33:40;;;;;;;24.13;13.88;;;;;;;2.76;100.00;101428.63;5315943;26;19996;-66
2024/04/18 01:36:05;;;;;;;23.20;13.57;;;;;;;2.85;100.00;101429.88;5346349;26;20004;-67
2024/04/18 01:38:31;;;;;;;24.58;13.32;;;;;;;2.88;100.00;101435.25;5346332;26;20043;-66
2024/04/18 01:40:56;;;;;;;23.95;13.20;;;;;;;2.91;100.00;101435.38;5346978;26;20078;-67
2024/04/18 01:43:21;;;;;;;23.17;12.90;;;;;;;2.94;100.00;101440.75;5346205;26;20005;-67
2024/04/18 01:45:47;;;;;;;22.45;12.43;;;;;;;2.97;100.00;101443.47;5346472;26;20012;-67
2024/04/18 01:48:12;;;;;;;22.77;12.35;;;;;;;2.99;100.00;101446.19;5346361;26;19993;-67
2024/04/18 01:50:37;;;;;;;23.10;12.73;;;;;;;2.98;100.00;101447.88;5346283;26;20012;-68
2024/04/18 01:53:03;;;;;;;22.83;12.70;;;;;;;2.97;100.00;101444.41;5346569;26;20001;-69
2024/04/18 01:55:28;;;;;;;23.00;12.32;;;;;;;3.00;100.00;101446.25;5346303;26;20012;-69
2024/04/18 01:57:53;;;;;;;22.63;12.15;;;;;;;2.99;100.00;101447.06;5346047;26;20059;-69
2024/04/18 02:00:19;;;;;;;22.88;11.98;;;;;;;2.99;100.00;101460.13;5345959;26;20016;-67
2024/04/18 02:02:44;;;;;;;22.00;11.77;;;;;;;2.97;100.00;101456.53;5345979;26;20009;-68
2024/04/18 02:05:09;;;;;;;23.45;12.13;;;;;;;2.96;100.00;101457.41;5346073;26;20058;-68
2024/04/18 02:07:35;;;;;;;23.20;12.73;;;;;;;2.99;100.00;101465.38;5344581;26;20001;-67
2024/04/18 02:10:00;;;;;;;22.75;12.45;;;;;;;3.03;100.00;101462.06;5345901;26;20008;-67
2024/04/18 02:12:25;;;;;;;23.00;12.77;;;;;;;3.04;100.00;101462.94;5346197;26;19997;-67
2024/04/18 02:14:51;;;;;;;23.42;12.98;;;;;;;3.07;100.00;101468.31;5345558;26;20070;-67
2024/04/18 02:17:16;;;;;;;23.60;13.40;;;;;;;3.10;100.00;101471.97;5345915;26;20004;-67
2024/04/18 02:19:41;;;;;;;23.88;13.77;;;;;;;3.08;100.00;101471.00;5345936;26;20001;-68
2024/04/18 02:22:07;;;;;;;23.02;13.02;;;;;;;3.09;100.00;101477.13;5346566;26;20004;-68
2024/04/18 02:25:03;;;;;;;23.33;13.32;;;;;;;3.09;100.00;101475.41;5349129;26;20001;-68
2024/04/18 02:27:29;;;;;;;22.30;13.30;;;;;;;3.04;100.00;101479.50;5347790;26;20004;-67
2024/04/18 02:29:54;;;;;;;23.90;13.98;;;;;;;3.02;100.00;101475.94;5348688;26;20040;-67
2024/04/18 02:32:19;;;;;;;24.08;14.25;;;;;;;2.99;100.00;101475.81;5349241;26;19996;-68
2024/04/18 02:34:45;;;;;;;23.63;14.30;;;;;;;2.94;100.00;101478.22;5349120;26;20010;-68
2024/04/18 02:37:10;;;;;;;24.48;14.95;;;;;;;2.86;100.00;101483.91;5348933;26;20012;-69
2024/04/18 02:39:36;;;;;;;24.33;14.75;;;;;;;2.82;100.00;101482.88;5348671;26;20015;-70
2024/04/18 02:42:02;;;;;;;25.30;15.90;;;;;;;2.75;100.00;101484.31;5348725;26;20448;-67
2024/04/18 02:44:27;;;;;;;25.60;16.15;;;;;;;2.69;100.00;101484.00;5348993;26;19997;-69
2024/04/18 02:46:53;;;;;;;25.63;15.80;;;;;;;2.61;100.00;101493.22;5346967;26;20395;-67
2024/04/18 02:49:18;;;;;;;25.50;16.00;;;;;;;2.52;100.00;101493.69;5346985;26;20074;-66
2024/04/18 02:51:44;;;;;;;24.83;15.85;;;;;;;2.40;100.00;101494.00;5349082;26;20015;-66
2024/04/18 02:54:09;;;;;;;26.30;16.60;;;;;;;2.35;100.00;101492.88;5348500;26;20004;-67
2024/04/18 02:56:34;;;;;;;26.25;16.83;;;;;;;2.31;100.00;101503.09;5348598;26;20465;-66
2024/04/18 02:59:00;;;;;;;26.70;17.52;;;;;;;2.24;100.00;101496.66;5348880;26;20328;-67
2024/04/18 03:01:25;;;;;;;27.45;17.05;;;;;;;2.18;100.00;101501.59;5348533;26;20447;-69
2024/04/18 03:03:50;;;;;;;28.23;17.08;;;;;;;2.12;100.00;101503.91;5348708;26;19996;-69
2024/04/18 03:06:16;;;;;;;26.75;17.05;;;;;;;2.02;100.00;101513.88;5348907;26;20359;-67
2024/04/18 03:08:41;;;;;;;26.92;17.10;;;;;;;1.97;100.00;101517.09;5348674;26;20423;-66
2024/04/18 03:11:07;;;;;;;26.30;16.80;;;;;;;1.92;100.00;101519.44;5348301;26;20009;-67
2024/04/18 03:13:32;;;;;;;25.90;17.17;;;;;;;1.82;100.00;101522.41;5348842;26;20004;-67
2024/04/18 03:15:57;;;;;;;26.10;16.80;;;;;;;1.77;100.00;101523.91;5348247;26;20008;-67
2024/04/18 03:18:22;;;;;;;26.70;17.55;;;;;;;1.76;100.00;101522.97;5348337;26;20009;-66
2024/04/18 03:20:54;;;;;;;28.02;18.52;;;;;;;1.68;100.00;101525.22;5348175;26;19993;-67
2024/04/18 03:23:19;;;;;;;27.63;18.55;;;;;;;1.67;100.00;101523.41;5348453;26;20008;-69
2024/04/18 03:25:47;;;;;;;28.27;19.13;;;;;;;1.58;100.00;101525.56;5390788;26;20020;-69
2024/04/18 03:28:16;;;;;;;28.00;18.30;;;;;;;1.60;100.00;101536.94;5348085;26;20007;-70
2024/04/18 03:30:41;;;;;;;28.75;19.00;;;;;;;1.61;100.00;101532.63;5348371;26;20043;-69
2024/04/18 03:33:07;;;;;;;27.05;18.35;;;;;;;1.64;100.00;101536.28;5347825;26;20029;-67
2024/04/18 03:35:37;;;;;;;29.70;19.75;;;;;;;1.66;100.00;101531.16;5347820;26;20447;-71
2024/04/18 03:38:03;;;;;;;29.05;19.02;;;;;;;1.69;100.00;101524.41;5347860;26;19997;-69
2024/04/18 03:40:28;;;;;;;27.75;18.83;;;;;;;1.70;100.00;101538.31;5347819;26;20004;-67
2024/04/18 03:42:53;;;;;;;28.98;19.23;;;;;;;1.69;100.00;101546.94;5348532;26;20011;-67
2024/04/18 03:45:19;;;;;;;27.35;18.60;;;;;;;1.61;100.00;101549.16;5347854;26;20446;-66
2024/04/18 03:47:44;;;;;;;27.67;18.75;;;;;;;1.59;100.00;101544.69;5347985;26;20336;-66
2024/04/18 03:50:09;;;;;;;27.23;18.40;;;;;;;1.54;100.00;101552.25;5347774;26;20005;-69
2024/04/18 03:52:35;;;;;;;29.17;18.88;;;;;;;1.49;100.00;101558.97;5348147;26;19993;-66
2024/04/18 03:55:00;;;;;;;28.30;18.13;;;;;;;1.41;100.00;101555.94;5348240;26;20447;-66
2024/04/18 03:57:25;;;;;;;28.42;17.98;;;;;;;1.41;100.00;101563.75;5347625;26;20484;-66
2024/04/18 03:59:51;;;;;;;26.90;17.70;;;;;;;1.37;100.00;101560.09;5347835;26;20001;-67
2024/04/18 04:02:16;;;;;;;28.13;17.75;;;;;;;1.33;100.00;101565.06;5347751;26;20007;-68
2024/04/18 04:04:41;;;;;;;28.27;17.70;;;;;;;1.31;100.00;101564.06;5347573;26;20518;-67
2024/04/18 04:07:07;;;;;;;28.27;17.73;;;;;;;1.34;100.00;101570.38;5346091;26;20001;-66
2024/04/18 04:09:32;;;;;;;27.05;17.10;;;;;;;1.36;100.00;101570.44;5347614;26;20000;-72
2024/04/18 04:11:57;;;;;;;27.45;17.83;;;;;;;1.34;100.00;101580.78;5347836;26;20000;-71
2024/04/18 04:14:23;;;;;;;28.40;17.35;;;;;;;1.35;100.00;101579.06;5347327;26;20451;-68
2024/04/18 04:16:48;;;;;;;27.42;16.63;;;;;;;1.41;100.00;101583.72;5347691;26;20327;-71
2024/04/18 04:19:13;;;;;;;26.13;15.70;;;;;;;1.43;100.00;101584.66;5347425;26;20066;-71
2024/04/18 04:21:39;;;;;;;27.38;15.82;;;;;;;1.45;100.00;101593.50;5347872;26;20003;-71
2024/04/18 04:24:04;;;;;;;26.75;15.98;;;;;;;1.36;100.00;101589.56;5347279;26;19997;-71
2024/04/18 04:26:33;;;;;;;26.08;14.60;;;;;;;1.33;100.00;101599.81;5347360;26;20007;-69
2024/04/18 04:28:59;;;;;;;27.27;15.27;;;;;;;1.32;100.00;101611.06;5340805;26;20001;-69
2024/04/18 04:31:25;;;;;;;26.48;14.68;;;;;;;1.32;100.00;101613.66;5347536;26;20001;-71
2024/04/18 04:33:50;;;;;;;25.80;14.45;;;;;;;1.33;100.00;101619.78;5347193;26;20071;-67
2024/04/18 04:36:16;;;;;;;26.65;14.45;;;;;;;1.34;100.00;101612.06;5347399;26;20409;-66
2024/04/18 04:38:42;;;;;;;25.48;13.07;;;;;;;1.36;100.00;101625.16;5347037;26;20005;-66
2024/04/18 04:41:07;;;;;;;25.08;13.43;;;;;;;1.35;100.00;101623.34;5347412;26;20025;-70
2024/04/18 04:43:32;;;;;;;25.02;12.30;;;;;;;1.42;100.00;101629.81;5347478;26;20280;-69
2024/04/18 04:45:58;;;;;;;26.30;13.10;;;;;;;1.34;100.00;101629.38;5346892;26;19993;-73
2024/04/18 04:48:23;;;;;;;25.42;12.88;;;;;;;1.37;100.00;101633.06;5389433;26;20402;-69
2024/04/18 04:51:00;;;;;;;25.58;13.27;;;;;;;1.37;100.00;101640.00;5345748;26;20001;-71
2024/04/18 04:53:26;;;;;;;24.75;12.32;;;;;;;1.33;100.00;101638.91;5347330;26;19997;-68
2024/04/18 04:55:52;;;;;;;25.88;12.65;;;;;;;1.31;100.00;101645.75;5346998;26;20004;-68
2024/04/18 04:58:17;;;;;;;26.30;12.52;;;;;;;1.33;100.00;101643.22;5347156;26;19997;-67
2024/04/18 05:00:43;;;;;;;24.95;12.15;;;;;;;1.33;100.00;101644.13;5344911;26;20070;-71
2024/04/18 05:03:08;;;;;;;26.38;12.40;;;;;;;1.39;100.00;101651.38;5347120;26;20000;-68
2024/04/18 05:05:33;;;;;;;25.20;12.30;;;;;;;1.43;100.00;101660.25;5346996;26;19993;-71
2024/04/18 05:07:59;;;;;;;24.88;12.10;;;;;;;1.44;100.00;101659.44;5346766;26;20407;-68
2024/04/18 05:10:24;;;;;;;25.33;12.35;;;;;;;1.46;100.00;101668.25;5346707;26;20008;-67
2024/04/18 05:12:50;;;;;;;25.75;12.40;;;;;;;1.44;100.00;101668.13;5346813;26;20000;-68
2024/04/18 05:15:16;;;;;;;25.33;12.10;;;;;;;1.49;100.00;101676.25;5346599;26;20349;-68
2024/04/18 05:17:41;;;;;;;26.45;12.93;;;;;;;1.51;100.00;101677.19;5345032;26;20016;-69
2024/04/18 05:20:07;;;;;;;27.20;12.43;;;;;;;1.51;100.00;101675.47;5389030;26;20328;-68
2024/04/18 05:22:33;;;;;;;26.75;12.50;;;;;;;1.60;100.00;101682.91;5346862;26;20016;-68
2024/04/18 05:24:58;;;;;;;24.88;12.60;;;;;;;1.62;100.00;101678.69;5346827;26;19997;-68
2024/04/18 05:27:23;;;;;;;29.20;17.25;;;;;;;1.65;100.00;101683.19;5346866;26;20001;-68
2024/04/18 05:32:33;;;;;;;26.55;12.93;;;;;;;1.72;100.00;101699.22;5340920;26;20066;-68
2024/04/18 05:34:58;;;;;;;25.45;12.25;;;;;;;1.76;100.00;101699.38;5346516;26;20001;-69
2024/04/18 05:37:24;;;;;;;26.27;12.13;;;;;;;1.80;100.00;101706.56;5346440;26;20008;-66
2024/04/18 05:39:49;;;;;;;26.30;12.40;;;;;;;1.84;100.00;101705.91;5388683;26;20005;-67
2024/04/18 05:42:14;;;;;;;26.08;12.13;;;;;;;1.91;100.00;101710.66;5346691;26;20033;-69
2024/04/18 05:44:40;;;;;;;25.67;11.85;;;;;;;1.98;100.00;101718.00;5346278;26;19996;-68
2024/04/18 05:47:06;;;;;;;25.27;11.88;;;;;;;2.05;100.00;101720.09;5346037;26;20004;-68
2024/04/18 05:49:31;;;;;;;24.50;12.27;;;;;;;2.09;100.00;101726.38;5346511;26;20011;-69
2024/04/18 05:51:57;;;;;;;25.08;11.85;;;;;;;2.12;100.00;101721.31;5339267;26;20336;-67
2024/04/18 05:54:22;;;;;;;24.73;12.18;;;;;;;2.20;100.00;101724.31;5388134;26;20012;-69
2024/04/18 05:56:48;;;;;;;25.67;12.18;;;;;;;2.24;100.00;101723.66;5346368;26;19996;-68
2024/04/18 05:59:13;;;;;;;26.27;12.52;;;;;;;2.30;100.00;101726.63;5349136;26;20011;-68
2024/04/18 06:01:38;;;;;;;24.98;12.15;;;;;;;2.35;100.00;101732.94;5349275;26;19997;-66
2024/04/18 06:04:04;;;;;;;26.10;12.65;;;;;;;2.44;100.00;101736.03;5349519;26;19996;-66
2024/04/18 06:06:29;;;;;;;27.30;12.82;;;;;;;2.53;100.00;101734.72;5349454;26;20004;-67
2024/04/18 06:08:54;;;;;;;26.48;13.13;;;;;;;2.59;100.00;101745.47;5349339;26;20005;-68
2024/04/18 06:11:35;;;;;;;26.80;12.73;;;;;;;2.70;100.00;101749.53;5349113;26;20067;-67
2024/04/18 06:14:04;;;;;;;25.98;13.10;;;;;;;2.73;100.00;101752.28;5342462;26;20001;-67
2024/04/18 06:16:31;;;;;;;29.20;14.82;;;;;;;2.80;100.00;101750.91;5342839;26;19993;-67
2024/04/18 06:18:57;;;;;;;26.75;15.05;;;;;;;2.90;100.00;101762.72;5349120;26;20008;-68
2024/04/18 06:21:22;;;;;;;27.58;15.68;;;;;;;2.91;100.00;101770.63;5348882;26;20016;-68
2024/04/18 06:23:47;;;;;;;28.92;16.73;;;;;;;2.99;100.00;101777.94;5348912;26;20075;-68
2024/04/18 06:26:13;;;;;;;31.85;19.00;;;;;;;3.10;100.00;101777.66;5348960;26;20036;-69
2024/04/18 06:28:38;;;;;;;31.00;20.67;;;;;;;3.17;100.00;101781.47;5348891;26;20033;-69
2024/04/18 06:31:04;;;;;;;31.17;21.15;;;;;;;3.20;100.00;101783.34;5349726;26;20048;-69
2024/04/18 06:33:29;;;;;;;32.00;20.63;;;;;;;3.30;100.00;101793.41;5349274;26;20000;-69
2024/04/18 06:35:55;;;;;;;31.60;21.42;;;;;;;3.32;100.00;101789.19;5349060;26;20044;-71
2024/04/18 06:38:21;;;;;;;31.60;21.05;;;;;;;3.43;100.00;101795.81;5348932;26;20435;-70
2024/04/18 06:40:46;;;;;;;31.92;22.15;;;;;;;3.51;100.00;101803.13;5349026;26;20007;-67
2024/04/18 06:43:12;;;;;;;30.35;20.00;;;;;;;3.53;100.00;101797.16;5348670;26;20001;-68
2024/04/18 06:45:38;;;;;;;29.52;19.67;;;;;;;3.64;100.00;101797.66;5348560;26;20447;-69
2024/04/18 06:48:06;;;;;;;29.25;19.48;;;;;;;3.73;100.00;101797.19;5349227;26;20028;-67
2024/04/18 06:50:31;;;;;;;28.25;16.40;;;;;;;3.73;100.00;101795.50;5348625;26;20398;-71
2024/04/18 06:52:57;;;;;;;27.27;16.90;;;;;;;3.83;100.00;101800.34;5348950;26;20005;-66
2024/04/18 06:55:22;;;;;;;27.85;17.45;;;;;;;4.03;100.00;101799.47;5346972;26;20440;-67
2024/04/18 06:57:48;;;;;;;29.02;17.20;;;;;;;4.08;100.00;101808.41;5348528;26;20015;-67
2024/04/18 07:00:14;;;;;;;26.77;16.55;;;;;;;4.18;100.00;101806.31;5341737;26;20466;-69
2024/04/18 07:02:39;;;;;;;27.23;15.82;;;;;;;4.32;100.00;101811.28;5348727;26;20001;-71
2024/04/18 07:05:05;;;;;;;24.67;14.88;;;;;;;4.37;100.00;101809.78;5348736;26;20336;-70
2024/04/18 07:07:30;;;;;;;25.02;15.20;;;;;;;4.47;100.00;101811.97;5348561;26;20008;-70
2024/04/18 07:09:55;;;;;;;24.15;13.80;;;;;;;4.51;100.00;101821.75;5347206;26;20028;-67
2024/04/18 07:12:21;;;;;;;24.63;13.02;;;;;;;4.62;100.00;101821.34;5361295;26;20001;-68
2024/04/18 07:14:46;;;;;;;22.40;11.50;;;;;;;4.70;100.00;101819.94;5348584;26;20448;-67
2024/04/18 07:17:11;;;;;;;22.83;10.85;;;;;;;4.74;100.00;101827.09;5348527;26;20096;-67
2024/04/18 07:19:37;;;;;;;23.20;12.15;;;;;;;4.97;100.00;101835.09;5348116;26;20078;-67
2024/04/18 07:22:02;;;;;;;22.85;11.10;;;;;;;5.07;100.00;101834.66;5348709;26;19997;-68
2024/04/18 07:24:28;;;;;;;22.10;9.65;;;;;;;5.14;100.00;101833.16;5348144;26;20332;-69
2024/04/18 07:26:54;;;;;;;21.52;9.38;;;;;;;5.32;100.00;101841.81;5348534;26;20029;-72
2024/04/18 07:29:20;;;;;;;21.13;7.97;;;;;;;5.35;100.00;101834.06;5348147;26;20071;-67
2024/04/18 07:31:45;;;;;;;20.00;7.70;;;;;;;5.41;100.00;101822.94;5348361;26;20383;-67
2024/04/18 07:34:11;;;;;;;21.02;7.95;;;;;;;5.55;100.00;101834.88;5346552;26;19992;-67
2024/04/18 07:36:36;;;;;;;18.90;6.05;;;;;;;5.57;100.00;101829.69;5347973;26;20071;-68
2024/04/18 07:39:01;;;;;;;19.35;6.47;;;;;;;5.66;100.00;101831.81;5348103;26;20004;-71
2024/04/18 07:41:27;;;;;;;19.42;6.15;;;;;;;5.76;100.00;101831.34;5346421;26;20343;-69
2024/04/18 07:43:52;;;;;;;16.85;5.30;;;;;;;5.86;100.00;101822.97;5347946;26;20003;-67
2024/04/18 07:46:18;;;;;;;18.67;5.70;;;;;;;5.93;100.00;101819.75;5347932;26;19997;-68
2024/04/18 07:48:43;;;;;;;18.58;5.95;;;;;;;6.08;100.00;101810.72;5348321;26;19993;-69
2024/04/18 07:51:09;;;;;;;18.88;5.60;;;;;;;6.15;100.00;101820.63;5347705;26;20009;-69
2024/04/18 07:53:34;;;;;;;19.33;5.90;;;;;;;6.31;100.00;101822.09;5347717;26;20016;-68
2024/04/18 07:55:59;;;;;;;17.83;5.32;;;;;;;6.42;100.00;101822.47;5348082;26;20008;-68
2024/04/18 07:58:26;;;;;;;16.27;4.80;;;;;;;6.43;100.00;101819.03;5348015;26;19996;-68
2024/04/18 08:00:51;;;;;;;16.85;5.03;;;;;;;6.61;100.00;101827.59;5347653;26;20008;-68
2024/04/18 08:03:17;;;;;;;17.67;5.00;;;;;;;6.97;100.00;101811.34;5346426;26;20001;-68
2024/04/18 08:05:42;;;;;;;20.70;5.03;;;;;;;7.51;100.00;101822.75;5347614;26;19997;-68
2024/04/18 08:08:08;;;;;;;15.88;4.50;;;;;;;8.15;100.00;101820.34;5347829;26;19997;-68
2024/04/18 08:10:34;;;;;;;17.10;4.63;;;;;;;8.92;100.00;101824.28;5390349;26;20047;-69
2024/04/18 08:12:59;;;;;;;14.20;3.80;;;;;;;9.32;100.00;101820.94;5347374;26;19997;-70
2024/04/18 08:15:24;;;;;;;14.82;3.70;;;;;;;9.81;100.00;101822.97;5390267;26;20433;-69
2024/04/18 08:17:50;;;;;;;14.25;3.85;;;;;;;10.20;100.00;101816.78;5347759;26;19996;-68
2024/04/18 08:20:15;;;;;;;17.05;4.30;;;;;;;10.50;100.00;101820.94;5346536;26;20092;-69
2024/04/18 08:22:40;;;;;;;13.75;3.78;;;;;;;11.27;100.00;101831.22;5347873;26;20005;-70
2024/04/18 08:25:07;;;;;;;14.95;3.72;;;;;;;11.47;100.00;101820.94;5347117;26;19997;-70
2024/04/18 08:27:33;;;;;;;8.30;3.20;;;;;;;11.11;100.00;101835.38;5347316;26;20005;-69
2024/04/18 08:29:58;;;;;;;15.02;4.82;;;;;;;10.66;100.00;101838.00;5347376;26;20012;-70
2024/04/18 08:32:23;;;;;;;11.38;3.70;;;;;;;11.50;100.00;101844.84;5347253;26;20405;-70
2024/04/18 08:34:49;;;;;;;14.35;3.85;;;;;;;11.91;100.00;101838.41;5347518;26;20489;-69
2024/04/18 08:37:14;;;;;;;11.30;3.05;;;;;;;11.55;100.00;101847.56;5347613;26;20483;-67
2024/04/18 08:39:40;;;;;;;13.98;3.00;;;;;;;10.76;100.00;101840.88;5347128;26;20007;-67
2024/04/18 08:42:10;;;;;;;11.65;3.17;;;;;;;10.32;100.00;101848.75;5347154;26;20459;-68
2024/04/18 08:44:35;;;;;;;11.93;3.50;;;;;;;10.25;100.00;101845.09;5347140;26;20021;-68
2024/04/18 08:47:01;;;;;;;13.07;4.03;;;;;;;10.08;100.00;101850.00;5345354;26;20001;-67
2024/04/18 08:49:27;;;;;;;13.25;3.25;;;;;;;10.08;100.00;101846.47;5346998;26;20063;-68
2024/04/18 08:51:53;;;;;;;11.45;3.30;;;;;;;10.98;100.00;101857.16;5347485;26;19996;-68
2024/04/18 08:54:19;;;;;;;9.25;3.10;;;;;;;11.75;100.00;101852.28;5340090;26;20008;-69
2024/04/18 08:56:49;;;;;;;13.80;3.22;;;;;;;11.67;100.00;101853.06;5346976;26;20001;-69
2024/04/18 08:59:14;;;;;;;11.20;3.00;;;;;;;11.55;100.00;101849.31;5347306;26;19997;-67
2024/04/18 09:01:40;;;;;;;10.25;2.78;;;;;;;10.94;100.00;101852.69;5347129;26;20335;-70
2024/04/18 09:04:06;;;;;;;11.45;2.95;;;;;;;10.48;100.00;101844.72;5346801;26;20424;-71
2024/04/18 09:06:31;;;;;;;12.60;3.10;;;;;;;10.21;100.00;101852.94;5347256;26;19997;-70
2024/04/18 09:09:00;;;;;;;11.07;2.80;;;;;;;10.07;100.00;101858.78;5346613;26;19993;-67
2024/04/18 09:11:25;;;;;;;13.00;2.80;;;;;;;10.05;100.00;101865.78;5346949;26;20000;-67
2024/04/18 09:13:51;;;;;;;10.57;2.80;;;;;;;10.05;100.00;101862.28;5345760;26;20016;-69
2024/04/18 09:16:16;;;;;;;7.03;2.50;;;;;;;9.87;100.00;101873.28;5316421;26;20324;-69
2024/04/18 09:18:41;;;;;;;10.80;2.80;;;;;;;9.92;100.00;101874.31;5345954;26;20016;-71
2024/04/18 09:21:09;;;;;;;9.63;2.67;;;;;;;10.09;100.00;101870.28;5346700;26;20013;-73
2024/04/18 09:23:35;;;;;;;10.38;3.00;;;;;;;10.29;100.00;101875.13;5346225;26;19995;-74
2024/04/18 09:26:00;;;;;;;7.97;2.65;;;;;;;10.40;100.00;101878.03;5342373;26;20008;-71
2024/04/18 09:28:26;;;;;;;7.88;2.90;;;;;;;10.41;100.00;101880.72;5344183;26;20005;-74
2024/04/18 09:30:55;;;;;;;8.68;2.90;;;;;;;10.32;100.00;101877.81;5346126;26;20009;-73
2024/04/18 09:33:21;;;;;;;10.75;2.80;;;;;;;10.29;100.00;101880.41;5345950;26;19996;-71
2024/04/18 09:35:49;;;;;;;9.15;2.90;;;;;;;10.26;100.00;101885.63;5346934;26;20012;-71
2024/04/18 09:38:17;;;;;;;9.20;2.90;;;;;;;10.42;100.00;101886.88;5339289;26;20070;-70
2024/04/18 09:41:07;;;;;;;10.45;3.10;;;;;;;11.15;100.00;101898.06;5346309;26;20325;-71
2024/04/18 09:43:52;;;;;;;9.40;2.90;;;;;;;12.96;100.00;101891.91;5342499;26;20001;-74
2024/04/18 09:46:18;;;;;;;9.05;2.55;;;;;;;12.76;100.00;101886.41;5339683;26;20008;-70
2024/04/18 09:48:46;;;;;;;9.43;2.53;;;;;;;12.06;100.00;101888.13;5346552;26;20001;-70
2024/04/18 09:51:13;;;;;;;6.82;2.50;;;;;;;11.72;100.00;101890.19;5344353;26;20005;-69
2024/04/18 09:53:39;;;;;;;5.85;2.33;;;;;;;11.64;100.00;101884.78;5388417;26;20029;-70
2024/04/18 09:56:06;;;;;;;9.38;2.45;;;;;;;11.58;100.00;101886.47;5344712;26;20004;-69
2024/04/18 09:58:32;;;;;;;9.38;2.70;;;;;;;11.78;100.00;101892.06;5346288;26;19997;-69
2024/04/18 10:00:57;;;;;;;7.68;2.55;;;;;;;12.26;100.00;101885.78;5346085;26;19997;-70
2024/04/18 10:03:24;;;;;;;6.72;2.65;;;;;;;12.20;100.00;101885.66;5346374;26;20025;-69
2024/04/18 10:05:53;;;;;;;8.77;2.60;;;;;;;11.85;100.00;101880.69;5346138;26;19993;-69
2024/04/18 10:08:22;;;;;;;9.45;2.60;;;;;;;11.65;100.00;101883.94;5382397;26;20002;-70
2024/04/18 10:10:49;;;;;;;8.30;2.72;;;;;;;11.60;100.00;101885.59;5339551;26;20332;-69
2024/04/18 10:13:15;;;;;;;8.10;2.60;;;;;;;12.14;100.00;101875.84;5346081;26;20011;-70
2024/04/18 10:15:41;;;;;;;5.93;2.50;;;;;;;12.87;100.00;101885.66;5346073;26;19992;-69
2024/04/18 10:18:16;;;;;;;6.68;2.60;;;;;;;12.83;100.00;101888.22;5345996;26;20071;-70
2024/04/18 10:20:43;;;;;;;8.00;2.63;;;;;;;12.66;100.00;101877.44;5345770;26;20025;-70
2024/04/18 10:23:13;;;;;;;7.32;2.50;;;;;;;13.97;100.00;101877.81;5345939;26;20012;-70
2024/04/18 10:25:43;;;;;;;7.63;2.45;;;;;;;16.76;100.00;101877.22;5345658;26;20004;-70
2024/04/18 10:28:26;;;;;;;6.55;2.42;;;;;;;19.22;100.00;101881.06;5345752;26;19996;-71
2024/04/18 10:30:52;;;;;;;6.35;2.40;;;;;;;19.58;100.00;101878.72;5340323;26;20444;-67
2024/04/18 10:33:28;;;;;;;8.55;2.50;;;;;;;17.92;100.00;101880.00;5343892;26;20000;-68
2024/04/18 10:35:53;;;;;;;8.88;2.40;;;;;;;16.20;100.00;101878.31;5340226;26;20001;-67
2024/04/18 10:38:26;;;;;;;4.45;2.08;;;;;;;14.53;100.00;101876.34;5345436;26;20074;-69
2024/04/18 10:41:02;;;;;;;6.60;2.10;;;;;;;13.27;100.00;101882.53;5340098;26;20028;-68
2024/04/18 10:43:28;;;;;;;9.20;2.33;;;;;;;15.56;100.00;101889.91;5346873;26;20012;-67
2024/04/18 10:45:55;;;;;;;6.70;2.38;;;;;;;17.65;100.00;101887.34;5348998;26;20005;-68
2024/04/18 10:48:21;;;;;;;5.82;2.30;;;;;;;18.89;85.46;101892.28;5348850;26;20008;-69
2024/04/18 10:50:49;;;;;;;7.15;2.30;;;;;;;20.01;81.80;101886.06;5348611;26;19997;-66
2024/04/18 10:53:15;;;;;;;5.25;2.20;;;;;;;21.09;69.56;101889.19;5349164;26;20008;-67
2024/04/18 10:55:40;;;;;;;5.75;2.33;;;;;;;20.66;70.22;101888.38;5348982;26;20429;-67
2024/04/18 10:58:06;;;;;;;7.70;2.50;;;;;;;19.03;88.63;101894.75;5348561;26;19993;-69
2024/04/18 11:00:32;;;;;;;6.10;2.30;;;;;;;17.43;99.28;101879.50;5346796;26;20333;-70
2024/04/18 11:02:57;;;;;;;6.80;2.30;;;;;;;16.05;100.00;101889.03;5348721;26;20054;-70
2024/04/18 11:05:23;;;;;;;7.70;2.22;;;;;;;16.25;100.00;101883.66;5348797;26;20444;-71
2024/04/18 11:07:53;;;;;;;7.32;2.30;;;;;;;16.92;100.00;101900.31;5348650;26;19993;-71
2024/04/18 11:10:21;;;;;;;9.23;2.35;;;;;;;17.32;100.00;101884.03;5342195;26;20327;-67